Time;durP1;ratioP1;P1;durP2;ratioP2;P2;SDS_P1;SDS_P2;PMS_P1;PMS_P2;Temp;Humidity;BMP_temperature;BMP_pressure;BME280_temperature;BME280_humidity;BME280_pressure;Samples;Min_cycle;Max_cycle;Signal;HPM_P1;HPM_P2
2021/11/07 00:00:23;;;;;;;10.50;8.38;;;;;;;5.71;100.00;98758.56;10261871;28;20039;-57
2021/11/07 00:05:29;;;;;;;10.90;7.50;;;;;;;5.67;100.00;98750.91;10249260;28;20051;-59
2021/11/07 00:10:39;;;;;;;11.15;8.07;;;;;;;5.75;100.00;98724.41;10252828;28;20141;-60
2021/11/07 00:15:43;;;;;;;10.40;7.60;;;;;;;5.73;100.00;98717.50;10246933;28;21177;-60
2021/11/07 00:20:53;;;;;;;11.02;7.95;;;;;;;5.71;100.00;98721.13;10249829;28;20049;-58
2021/11/07 00:26:04;;;;;;;11.52;7.45;;;;;;;5.71;100.00;98721.13;10247881;28;20073;-60
2021/11/07 00:31:17;;;;;;;10.52;6.88;;;;;;;5.71;100.00;98698.88;10295146;28;20574;-57
2021/11/07 00:36:27;;;;;;;8.57;6.60;;;;;;;5.73;100.00;98686.25;10292371;28;20418;-57
2021/11/07 00:41:36;;;;;;;9.63;7.57;;;;;;;5.70;100.00;98665.97;10300909;28;20046;-58
2021/11/07 00:46:43;;;;;;;10.25;7.35;;;;;;;5.66;100.00;98671.69;10286943;28;20063;-61
2021/11/07 00:51:57;;;;;;;9.23;6.80;;;;;;;5.65;100.00;98678.00;10291246;28;20048;-58
2021/11/07 00:57:13;;;;;;;11.82;7.40;;;;;;;5.69;100.00;98658.09;10305876;28;20051;-57
2021/11/07 01:02:20;;;;;;;7.65;5.60;;;;;;;5.78;100.00;98638.63;10298802;28;20052;-57
2021/11/07 01:07:24;;;;;;;10.15;6.03;;;;;;;5.78;100.00;98633.28;10301725;28;20489;-59
2021/11/07 01:12:29;;;;;;;8.23;6.03;;;;;;;5.76;100.00;98616.50;10303953;28;20076;-57
2021/11/07 01:17:32;;;;;;;9.77;6.90;;;;;;;5.74;100.00;98606.91;10308659;28;20050;-61
2021/11/07 01:22:43;;;;;;;10.35;6.38;;;;;;;5.68;100.00;98594.91;10306119;28;20901;-55
2021/11/07 01:27:48;;;;;;;10.77;6.85;;;;;;;5.64;100.00;98599.66;10301301;28;20050;-57
2021/11/07 01:32:57;;;;;;;9.27;5.97;;;;;;;5.65;100.00;98597.81;10296287;28;20057;-55
2021/11/07 01:38:11;;;;;;;8.45;5.22;;;;;;;5.71;100.00;98587.47;10301207;28;20041;-58
2021/11/07 01:43:16;;;;;;;9.02;5.68;;;;;;;5.71;100.00;98566.09;10302939;28;20054;-53
2021/11/07 01:48:24;;;;;;;8.70;5.93;;;;;;;5.68;100.00;98565.50;10306515;28;20059;-55
2021/11/07 01:53:32;;;;;;;10.00;6.22;;;;;;;5.63;100.00;98552.53;10304212;28;20065;-54
2021/11/07 01:58:38;;;;;;;8.85;6.05;;;;;;;5.53;100.00;98547.06;10306366;28;20050;-57
2021/11/07 02:03:41;;;;;;;10.45;6.75;;;;;;;5.51;100.00;98546.34;10296378;28;20034;-53
2021/11/07 02:08:45;;;;;;;8.10;5.20;;;;;;;5.49;100.00;98539.44;10303252;28;20049;-58
2021/11/07 02:13:50;;;;;;;7.07;5.35;;;;;;;5.53;100.00;98523.03;10296291;28;20053;-54
2021/11/07 02:18:54;;;;;;;8.60;5.43;;;;;;;5.52;100.00;98507.13;10318146;28;20125;-57
2021/11/07 02:24:00;;;;;;;8.20;5.60;;;;;;;5.45;100.00;98501.44;10316092;28;20054;-57
2021/11/07 02:29:04;;;;;;;8.15;5.43;;;;;;;5.39;100.00;98496.59;10314906;28;20833;-55
2021/11/07 02:34:07;;;;;;;7.82;5.18;;;;;;;5.37;100.00;98498.53;10294443;28;20071;-57
2021/11/07 02:39:13;;;;;;;9.57;5.22;;;;;;;5.40;100.00;98492.94;10306378;28;20062;-53
2021/11/07 02:44:31;;;;;;;6.43;4.93;;;;;;;5.41;100.00;98489.28;10308666;28;20050;-58
2021/11/07 02:49:36;;;;;;;10.32;4.50;;;;;;;5.42;100.00;98485.66;10332695;28;20608;-61
2021/11/07 02:55:06;;;;;;;5.63;4.32;;;;;;;5.38;100.00;98489.53;10307046;28;20130;-58
2021/11/07 03:00:12;;;;;;;6.85;4.10;;;;;;;5.39;100.00;98465.38;10310055;28;20052;-57
2021/11/07 03:05:15;;;;;;;5.93;4.10;;;;;;;5.42;100.00;98479.44;10351545;23;20053;-58
2021/11/07 03:10:21;;;;;;;8.68;4.07;;;;;;;5.42;100.00;98479.44;10367478;28;20053;-58
2021/11/07 03:15:24;;;;;;;9.13;5.97;;;;;;;5.39;100.00;98469.88;10380706;28;20319;-58
2021/11/07 03:20:30;;;;;;;10.57;6.70;;;;;;;5.35;100.00;98463.09;10382115;28;20048;-57
2021/11/07 03:25:45;;;;;;;12.50;7.32;;;;;;;5.34;100.00;98466.75;10380794;28;20930;-58
2021/11/07 03:30:55;;;;;;;12.82;8.38;;;;;;;5.35;100.00;98452.41;10374064;28;20513;-55
2021/11/07 03:36:01;;;;;;;12.27;8.38;;;;;;;5.34;100.00;98440.88;10374281;28;20047;-53
2021/11/07 03:41:06;;;;;;;11.18;7.20;;;;;;;5.40;100.00;98435.03;10372204;28;20652;-57
2021/11/07 03:46:10;;;;;;;9.45;6.82;;;;;;;5.41;100.00;98414.50;10369868;28;20052;-56
2021/11/07 03:51:15;;;;;;;11.95;7.30;;;;;;;5.39;100.00;98403.06;10364405;28;20044;-56
2021/11/07 03:56:19;;;;;;;11.30;7.03;;;;;;;5.31;100.00;98401.03;10369599;28;20413;-54
2021/11/07 04:01:22;;;;;;;11.77;6.88;;;;;;;5.27;100.00;98382.72;10366532;28;20515;-54
2021/11/07 04:06:26;;;;;;;10.60;7.93;;;;;;;5.17;100.00;98380.84;10395682;28;20070;-57
2021/11/07 04:11:30;;;;;;;14.25;7.88;;;;;;;5.09;100.00;98368.13;10386673;28;20298;-54
2021/11/07 04:16:34;;;;;;;10.20;7.07;;;;;;;5.05;100.00;98366.69;10378940;28;20080;-56
2021/11/07 04:21:39;;;;;;;9.95;6.90;;;;;;;5.02;100.00;98342.06;10387453;28;20065;-56
2021/11/07 04:26:44;;;;;;;10.63;6.85;;;;;;;5.02;100.00;98307.34;10385794;28;20080;-54
2021/11/07 04:31:47;;;;;;;11.98;7.55;;;;;;;5.01;100.00;98335.00;10381689;28;20490;-55
2021/11/07 04:36:50;;;;;;;9.73;7.13;;;;;;;5.01;100.00;98321.66;10382620;28;20425;-55
2021/11/07 04:41:54;;;;;;;10.65;7.13;;;;;;;4.99;100.00;98327.16;10386884;28;20052;-54
2021/11/07 04:46:58;;;;;;;12.23;7.72;;;;;;;5.02;100.00;98323.34;10386208;28;20076;-57
2021/11/07 04:52:01;;;;;;;10.20;7.68;;;;;;;5.00;100.00;98320.84;10384793;28;20117;-54
2021/11/07 04:57:06;;;;;;;11.68;7.63;;;;;;;4.99;100.00;98311.13;10390154;28;20096;-54
2021/11/07 05:02:11;;;;;;;10.13;7.70;;;;;;;5.02;100.00;98315.34;10378804;28;20486;-56
2021/11/07 05:07:16;;;;;;;10.18;7.45;;;;;;;5.01;100.00;98300.31;10341252;28;20053;-53
2021/11/07 05:12:20;;;;;;;12.15;7.35;;;;;;;5.02;100.00;98302.88;10337158;28;20125;-52
2021/11/07 05:17:24;;;;;;;11.82;7.93;;;;;;;5.05;100.00;98307.09;10336103;28;20074;-54
2021/11/07 05:22:27;;;;;;;10.45;7.43;;;;;;;5.05;100.00;98291.94;10341512;28;20039;-56
2021/11/07 05:27:32;;;;;;;11.77;8.65;;;;;;;5.03;100.00;98272.53;10347987;28;20128;-56
2021/11/07 05:32:59;;;;;;;14.10;9.15;;;;;;;5.04;100.00;98262.66;10361096;28;20395;-53
2021/11/07 05:38:02;;;;;;;12.57;9.52;;;;;;;5.02;100.00;98273.50;10378399;28;20088;-52
2021/11/07 05:43:07;;;;;;;13.00;9.77;;;;;;;5.01;100.00;98265.59;10384556;28;20037;-57
2021/11/07 05:48:10;;;;;;;12.27;8.88;;;;;;;5.01;100.00;98254.91;10379791;28;20123;-53
2021/11/07 05:53:13;;;;;;;12.68;9.50;;;;;;;4.99;100.00;98251.56;10396449;28;20623;-52
2021/11/07 05:58:18;;;;;;;14.23;10.35;;;;;;;4.99;100.00;98233.69;10399360;28;20083;-53
2021/11/07 06:03:22;;;;;;;13.32;10.98;;;;;;;4.98;100.00;98241.84;10391428;28;20093;-55
2021/11/07 06:08:31;;;;;;;13.93;9.88;;;;;;;4.97;100.00;98232.16;10434850;28;20515;-57
2021/11/07 06:13:36;;;;;;;12.52;9.55;;;;;;;4.98;100.00;98248.03;10436213;28;20137;-55
2021/11/07 06:18:39;;;;;;;11.65;9.60;;;;;;;4.97;100.00;98245.50;10434695;28;20049;-55
2021/11/07 06:23:42;;;;;;;13.75;10.00;;;;;;;4.94;100.00;98249.25;10434779;28;20037;-54
2021/11/07 06:28:47;;;;;;;13.98;9.93;;;;;;;4.93;100.00;98255.59;10435815;28;20080;-55
2021/11/07 06:33:50;;;;;;;17.80;10.55;;;;;;;4.92;100.00;98251.22;10429396;28;20423;-56
2021/11/07 06:38:53;;;;;;;15.90;9.90;;;;;;;4.89;100.00;98238.97;10425482;28;20057;-56
2021/11/07 06:43:59;;;;;;;12.18;9.43;;;;;;;4.92;100.00;98232.53;10435070;28;20037;-56
2021/11/07 06:49:03;;;;;;;13.45;9.93;;;;;;;4.90;100.00;98243.31;10431868;28;20041;-55
2021/11/07 06:54:07;;;;;;;12.70;9.50;;;;;;;4.94;100.00;98242.09;10426078;28;20422;-55
2021/11/07 06:59:11;;;;;;;12.38;8.40;;;;;;;4.94;100.00;98247.44;10431355;28;20051;-55
2021/11/07 07:04:14;;;;;;;12.77;9.10;;;;;;;4.97;100.00;98246.31;10430513;28;20080;-52
2021/11/07 07:09:22;;;;;;;12.75;9.23;;;;;;;4.97;100.00;98262.34;10421107;28;20549;-56
2021/11/07 07:14:31;;;;;;;11.57;8.25;;;;;;;5.00;100.00;98261.25;10425210;28;20053;-54
2021/11/07 07:19:50;;;;;;;12.45;7.22;;;;;;;5.04;100.00;98249.31;10427165;28;20473;-56
2021/11/07 07:25:44;;;;;;;9.00;6.50;;;;;;;5.17;100.00;98257.16;10429094;28;20074;-53
2021/11/07 07:31:10;;;;;;;7.82;5.60;;;;;;;5.27;100.00;98267.88;10425513;28;20122;-52
2021/11/07 07:36:14;;;;;;;7.28;5.20;;;;;;;5.33;100.00;98262.03;10428507;28;20051;-56
2021/11/07 07:41:17;;;;;;;6.85;4.95;;;;;;;5.37;100.00;98256.28;10426379;28;20078;-56
2021/11/07 07:46:22;;;;;;;6.38;4.38;;;;;;;5.44;100.00;98267.28;10429830;28;20516;-55
2021/11/07 07:51:31;;;;;;;6.60;4.38;;;;;;;5.48;100.00;98241.16;10433040;28;20119;-55
2021/11/07 07:56:36;;;;;;;5.68;3.80;;;;;;;5.50;100.00;98234.69;10429009;28;20146;-55
2021/11/07 08:08:33;;;;;;;4.10;2.88;;;;;;;5.53;100.00;98225.53;10406718;28;20455;-55
2021/11/07 08:13:36;;;;;;;3.95;2.67;;;;;;;5.52;100.00;98246.09;10423854;28;20096;-57
2021/11/07 08:18:39;;;;;;;2.95;2.50;;;;;;;5.51;100.00;98247.06;10421830;28;20038;-59
2021/11/07 08:23:47;;;;;;;3.22;2.15;;;;;;;5.46;100.00;98230.59;10428166;28;20826;-58
2021/11/07 08:28:53;;;;;;;3.70;2.50;;;;;;;5.46;100.00;98232.41;10437203;28;20041;-57
2021/11/07 08:34:01;;;;;;;3.15;2.10;;;;;;;5.47;100.00;98232.25;10429502;28;20041;-58
2021/11/07 08:39:12;;;;;;;3.40;2.25;;;;;;;5.47;100.00;98215.41;10437377;28;20057;-58
2021/11/07 09:00:26;;;;;;;3.00;2.22;;;;;;;5.43;100.00;98204.16;10421699;28;20576;-56
2021/11/07 09:05:36;;;;;;;2.60;1.83;;;;;;;5.44;100.00;98189.81;10432872;28;20123;-58
2021/11/07 09:10:41;;;;;;;4.70;1.90;;;;;;;5.53;100.00;98198.81;10357360;28;20052;-56
2021/11/07 09:15:48;;;;;;;2.00;1.80;;;;;;;5.70;100.00;98184.00;10360821;28;20045;-56
2021/11/07 09:20:59;;;;;;;2.75;1.80;;;;;;;5.80;100.00;98187.53;10360168;28;20073;-57
2021/11/07 09:26:25;;;;;;;1.77;1.50;;;;;;;5.83;100.00;98195.25;10346450;28;20296;-55
2021/11/07 09:31:39;;;;;;;1.98;1.50;;;;;;;5.85;100.00;98187.13;10355529;28;20446;-54
2021/11/07 09:36:45;;;;;;;1.50;1.40;;;;;;;5.92;100.00;98182.06;10358365;28;20062;-52
2021/11/07 09:42:24;;;;;;;3.35;1.50;;;;;;;5.99;100.00;98172.50;10358886;28;20388;-55
2021/11/07 09:47:28;;;;;;;1.30;1.10;;;;;;;6.03;100.00;98157.91;10373092;28;20580;-51
2021/11/07 09:52:37;;;;;;;1.48;1.13;;;;;;;6.07;100.00;98167.34;10358124;28;20046;-51
2021/11/07 09:57:43;;;;;;;1.08;0.90;;;;;;;6.10;100.00;98188.47;10357050;28;20050;-54
2021/11/07 10:02:47;;;;;;;0.93;0.90;;;;;;;6.09;100.00;98157.34;10355581;28;21225;-56
2021/11/07 10:08:01;;;;;;;1.40;0.90;;;;;;;6.07;100.00;98166.50;10394943;28;20088;-54
2021/11/07 10:13:12;;;;;;;1.30;0.90;;;;;;;6.07;100.00;98167.34;10427784;28;20045;-55
2021/11/07 10:18:25;;;;;;;1.70;1.00;;;;;;;6.09;100.00;98169.88;10435055;28;20082;-53
2021/11/07 10:23:32;;;;;;;2.33;1.35;;;;;;;6.15;100.00;98163.97;10432464;28;20424;-53
2021/11/07 10:28:43;;;;;;;1.20;0.98;;;;;;;6.23;100.00;98168.63;10425860;28;20037;-55
2021/11/07 10:34:10;;;;;;;1.30;1.05;;;;;;;6.35;100.00;98172.03;10427663;28;20087;-56
2021/11/07 10:39:31;;;;;;;1.88;1.30;;;;;;;6.46;100.00;98159.31;10413962;28;20098;-56
2021/11/07 10:45:04;;;;;;;;;;;;;;;6.54;100.00;98155.09;10424457;28;20048;-55
2021/11/07 10:55:35;;;;;;;2.22;1.48;;;;;;;6.64;100.00;98155.94;10431124;28;20049;-55
2021/11/07 11:00:41;;;;;;;3.40;2.22;;;;;;;6.69;100.00;98159.03;10435084;28;20049;-55
2021/11/07 11:05:49;;;;;;;2.90;2.10;;;;;;;6.71;100.00;98153.50;10430884;28;20033;-55
2021/11/07 11:11:02;;;;;;;3.92;2.20;;;;;;;6.73;100.00;98156.91;10428102;28;20057;-57
2021/11/07 11:16:27;;;;;;;5.10;2.85;;;;;;;6.69;100.00;98169.72;10429294;28;20037;-57
2021/11/07 11:21:45;;;;;;;3.47;2.53;;;;;;;6.60;100.00;98178.63;10432297;28;20468;-60
2021/11/07 11:27:00;;;;;;;3.75;2.58;;;;;;;6.58;100.00;98172.56;10433429;28;20128;-58
2021/11/07 11:32:08;;;;;;;3.15;2.60;;;;;;;6.61;100.00;98169.59;10432563;28;20045;-59
2021/11/07 11:37:15;;;;;;;3.22;2.60;;;;;;;6.64;100.00;98155.94;10427565;28;20050;-58
2021/11/07 11:42:23;;;;;;;2.65;2.40;;;;;;;6.67;100.00;98149.47;10429981;28;20424;-58
2021/11/07 11:48:03;;;;;;;3.13;2.40;;;;;;;6.66;100.00;98143.25;10427504;28;20055;-58
2021/11/07 11:53:18;;;;;;;3.67;2.53;;;;;;;6.66;100.00;98147.75;10423375;28;20033;-55
2021/11/07 11:58:38;;;;;;;3.28;2.70;;;;;;;6.68;100.00;98132.41;10427424;28;20112;-56
2021/11/07 12:03:55;;;;;;;3.45;3.10;;;;;;;6.75;100.00;98120.97;10426094;28;20092;-55
2021/11/07 12:09:19;;;;;;;4.90;3.10;;;;;;;6.84;100.00;98110.38;10430551;28;20045;-55
2021/11/07 12:14:34;;;;;;;4.47;3.28;;;;;;;6.92;100.00;98105.13;10417681;28;20135;-55
2021/11/07 12:19:45;;;;;;;3.88;2.40;;;;;;;6.95;100.00;98110.22;10427342;28;20091;-57
2021/11/07 12:25:10;;;;;;;4.50;2.78;;;;;;;6.98;100.00;98090.31;10432107;28;20071;-57
2021/11/07 12:30:28;;;;;;;3.10;2.28;;;;;;;7.00;100.00;98091.03;10417701;28;20739;-56
2021/11/07 12:35:37;;;;;;;4.30;2.90;;;;;;;6.90;100.00;98099.06;10456894;23;20454;-75
2021/11/07 12:40:45;;;;;;;4.00;3.20;;;;;;;6.79;100.00;98100.94;10478293;28;20385;-76
2021/11/07 12:45:53;;;;;;;4.32;2.85;;;;;;;6.71;100.00;98091.94;10484309;28;20350;-74
2021/11/07 12:51:01;;;;;;;5.05;3.10;;;;;;;6.67;100.00;98094.06;10463287;28;20103;-75
2021/11/07 12:56:09;;;;;;;4.60;3.17;;;;;;;6.60;100.00;98091.13;10468269;28;20048;-77
2021/11/07 13:01:12;;;;;;;4.40;3.60;;;;;;;6.53;100.00;98094.50;10450307;28;20592;-78
2021/11/07 13:06:17;;;;;;;3.95;3.40;;;;;;;6.46;100.00;98088.91;10468888;28;20037;-78
2021/11/07 13:11:25;;;;;;;4.75;3.35;;;;;;;6.48;100.00;98081.56;10469977;28;20045;-77
2021/11/07 13:16:52;;;;;;;4.75;3.40;;;;;;;6.51;100.00;98077.78;10473213;28;20065;-76
2021/11/07 13:22:15;;;;;;;4.35;2.83;;;;;;;6.58;100.00;98081.56;10474581;28;20581;-75
2021/11/07 13:27:21;;;;;;;3.95;2.70;;;;;;;6.66;100.00;98078.16;10448686;28;20416;-77
2021/11/07 13:32:34;;;;;;;5.18;3.13;;;;;;;6.66;100.00;98080.84;10470602;28;20514;-77
2021/11/07 13:37:44;;;;;;;3.88;2.92;;;;;;;6.62;100.00;98077.63;10475443;28;20606;-77
2021/11/07 13:42:48;;;;;;;4.15;3.42;;;;;;;6.63;100.00;98072.09;10455973;28;20083;-78
2021/11/07 13:47:52;;;;;;;9.68;3.70;;;;;;;6.66;100.00;98073.66;10472962;28;20420;-78
2021/11/07 13:52:56;;;;;;;6.78;3.45;;;;;;;6.70;100.00;98064.34;10469436;28;20136;-76
2021/11/07 13:58:14;;;;;;;3.92;3.20;;;;;;;6.76;100.00;98062.91;10474088;28;20037;-76
2021/11/07 14:03:22;;;;;;;6.00;2.83;;;;;;;6.75;100.00;98064.75;10469552;28;20053;-76
2021/11/07 14:08:27;;;;;;;8.57;3.20;;;;;;;6.78;100.00;98055.59;10476190;28;20062;-79
2021/11/07 14:13:39;;;;;;;6.15;3.47;;;;;;;6.83;100.00;98052.47;10475875;28;20471;-75
2021/11/07 14:18:45;;;;;;;6.78;3.80;;;;;;;6.88;100.00;98044.84;10458245;28;20075;-78
2021/11/07 14:23:52;;;;;;;7.45;3.38;;;;;;;6.95;100.00;98051.28;10466711;28;20039;-74
2021/11/07 14:29:06;;;;;;;4.88;2.72;;;;;;;7.04;100.00;98041.53;10457327;28;20078;-76
2021/11/07 14:34:18;;;;;;;4.18;2.30;;;;;;;7.19;100.00;98036.53;10462465;28;20044;-76
2021/11/07 14:39:36;;;;;;;4.90;2.20;;;;;;;7.28;100.00;98032.94;10455693;28;20045;-76
2021/11/07 14:44:46;;;;;;;5.65;2.08;;;;;;;7.32;100.00;98039.69;10466036;28;20045;-76
2021/11/07 14:50:14;;;;;;;5.60;2.38;;;;;;;7.29;100.00;98037.31;10449889;28;20044;-82
2021/11/07 14:55:26;;;;;;;6.25;2.42;;;;;;;7.28;100.00;98040.16;10447890;28;20060;-74
2021/11/07 15:00:45;;;;;;;5.78;2.60;;;;;;;7.27;100.00;98036.59;10469536;28;20551;-76
2021/11/07 15:06:17;;;;;;;4.68;2.60;;;;;;;7.28;100.00;98035.63;10466270;28;20068;-77
2021/11/07 15:11:35;;;;;;;6.75;2.70;;;;;;;7.29;100.00;98026.59;10449747;28;20501;-75
2021/11/07 15:16:42;;;;;;;5.30;2.35;;;;;;;7.23;100.00;98022.66;10467370;28;20051;-75
2021/11/07 15:22:01;;;;;;;6.18;2.35;;;;;;;7.20;100.00;98027.50;10445486;28;20056;-76
2021/11/07 15:27:14;;;;;;;7.20;2.30;;;;;;;7.15;100.00;98040.47;10452531;28;20136;-76
2021/11/07 15:32:17;;;;;;;6.43;2.10;;;;;;;7.12;100.00;98038.09;10487365;28;20048;-75
2021/11/07 15:37:27;;;;;;;5.03;2.47;;;;;;;7.05;100.00;98033.34;10447511;28;20091;-75
2021/11/07 15:42:33;;;;;;;4.43;2.33;;;;;;;6.99;100.00;98044.66;10449567;28;20045;-76
2021/11/07 15:47:40;;;;;;;4.47;2.22;;;;;;;6.99;100.00;98047.34;10463073;28;20128;-77
2021/11/07 15:52:46;;;;;;;10.00;2.72;;;;;;;7.01;100.00;98050.69;10460567;28;20045;-76
2021/11/07 15:58:02;;;;;;;7.57;2.42;;;;;;;7.05;100.00;98062.81;10460580;28;20051;-77
2021/11/07 16:03:21;;;;;;;7.57;2.63;;;;;;;7.05;100.00;98065.47;10450777;28;20056;-79
2021/11/07 16:08:35;;;;;;;5.78;2.22;;;;;;;7.07;100.00;98074.22;10441881;28;20190;-78
2021/11/07 16:13:55;;;;;;;5.93;2.30;;;;;;;7.11;100.00;98076.63;10462513;28;20104;-78
2021/11/07 16:19:01;;;;;;;9.35;2.75;;;;;;;7.08;100.00;98083.94;10443670;28;20045;-77
2021/11/07 16:24:09;;;;;;;6.40;2.45;;;;;;;7.07;100.00;98092.13;10448829;28;20048;-78
2021/11/07 16:29:21;;;;;;;13.18;3.55;;;;;;;6.99;100.00;98079.47;10465512;28;20067;-78
2021/11/07 16:34:24;;;;;;;6.55;2.85;;;;;;;6.95;100.00;98086.09;10467701;28;20056;-78
2021/11/07 16:39:30;;;;;;;7.55;3.22;;;;;;;6.85;100.00;98088.81;10447095;28;20397;-78
2021/11/07 16:44:38;;;;;;;6.97;2.80;;;;;;;6.84;100.00;98094.31;10474968;28;20061;-77
2021/11/07 16:49:42;;;;;;;8.50;2.70;;;;;;;6.83;100.00;98106.03;10458421;28;20143;-75
2021/11/07 16:54:53;;;;;;;6.03;2.60;;;;;;;6.76;100.00;98125.31;10455701;28;20055;-75
2021/11/07 17:00:11;;;;;;;8.73;2.83;;;;;;;6.74;100.00;98138.03;10395407;28;20049;-75
2021/11/07 17:05:20;;;;;;;9.75;2.40;;;;;;;6.69;100.00;98153.66;10434035;28;20037;-75
2021/11/07 17:10:24;;;;;;;10.18;2.63;;;;;;;6.79;100.00;98149.13;10407683;28;20489;-75
2021/11/07 17:15:34;;;;;;;11.90;2.30;;;;;;;6.85;100.00;98160.28;10408249;28;20100;-75
2021/11/07 17:20:56;;;;;;;10.52;2.40;;;;;;;6.76;100.00;98197.63;10407557;28;20061;-76
2021/11/07 17:26:04;;;;;;;6.45;1.70;;;;;;;6.42;100.00;98206.06;10418670;28;20045;-77
2021/11/07 17:31:12;;;;;;;9.25;1.70;;;;;;;6.20;100.00;98168.91;10405424;28;20120;-75
2021/11/07 17:36:22;;;;;;;5.57;1.35;;;;;;;6.10;100.00;98183.09;10387553;28;20049;-76
2021/11/07 17:44:45;;;;;;;10.40;1.67;;;;;;;6.00;100.00;98185.75;10397467;28;20054;-76
2021/11/07 17:57:58;;;;;;;6.75;1.95;;;;;;;5.79;100.00;98214.38;10405639;28;20121;-76
2021/11/07 18:03:03;;;;;;;8.65;2.65;;;;;;;5.78;100.00;98216.22;10425577;28;20045;-76
2021/11/07 18:08:13;;;;;;;8.82;2.60;;;;;;;5.83;100.00;98210.47;10401560;28;20496;-76
2021/11/07 18:13:18;;;;;;;14.90;3.40;;;;;;;5.88;100.00;98208.22;10380121;28;20065;-76
2021/11/07 18:18:49;;;;;;;9.38;3.17;;;;;;;5.93;100.00;98211.34;10431173;28;20034;-76
2021/11/07 18:24:01;;;;;;;13.02;3.05;;;;;;;5.96;100.00;98203.06;10397457;28;20041;-76
2021/11/07 18:29:05;;;;;;;;;;;;;;;5.94;100.00;98206.84;10403972;28;20128;-75
2021/11/07 18:34:10;;;;;;;11.32;3.17;;;;;;;6.04;100.00;98206.88;10399250;28;19939;-76
2021/11/07 18:39:15;;;;;;;15.75;3.70;;;;;;;6.03;100.00;98206.06;10401474;28;20508;-76
2021/11/07 18:44:18;;;;;;;9.95;2.63;;;;;;;6.05;100.00;98216.59;10402326;28;20049;-75
2021/11/07 18:49:23;;;;;;;10.35;2.80;;;;;;;6.10;100.00;98206.34;10404631;28;20045;-75
2021/11/07 18:54:26;;;;;;;13.00;2.53;;;;;;;6.02;100.00;98212.38;10382308;28;20046;-74
2021/11/07 18:59:29;;;;;;;10.75;2.17;;;;;;;6.01;100.00;98208.00;10397754;28;20072;-75
2021/11/07 19:04:34;;;;;;;13.90;2.70;;;;;;;5.99;100.00;98204.59;10396426;28;20408;-76
2021/11/07 19:09:39;;;;;;;10.63;2.55;;;;;;;5.96;100.00;98204.88;10401755;28;20059;-77
2021/11/07 19:14:42;;;;;;;9.30;2.58;;;;;;;5.90;100.00;98214.28;10411466;28;20038;-77
2021/11/07 19:19:48;;;;;;;9.43;2.80;;;;;;;5.94;100.00;98231.75;10396451;28;20045;-79
2021/11/07 19:24:51;;;;;;;9.50;2.22;;;;;;;6.04;100.00;98223.78;10389501;28;20076;-77
2021/11/07 19:29:54;;;;;;;8.55;2.38;;;;;;;6.02;100.00;98231.09;10415238;28;20041;-78
2021/11/07 19:34:59;;;;;;;6.97;2.50;;;;;;;5.91;100.00;98229.34;10406054;28;20103;-78
2021/11/07 19:40:04;;;;;;;14.48;2.53;;;;;;;5.83;100.00;98242.56;10413918;28;20136;-78
2021/11/07 19:45:07;;;;;;;11.48;2.88;;;;;;;5.79;100.00;98249.13;10397532;28;20049;-78
2021/11/07 19:50:13;;;;;;;10.20;2.00;;;;;;;5.79;100.00;98250.00;10414654;28;20057;-77
2021/11/07 19:55:17;;;;;;;10.75;2.20;;;;;;;5.78;100.00;98245.63;10412634;28;20049;-78
2021/11/07 20:00:47;;;;;;;9.70;1.88;;;;;;;5.74;100.00;98249.53;10408914;28;20817;-75
2021/11/07 20:06:11;;;;;;;9.38;2.13;;;;;;;5.68;100.00;98258.94;10414455;28;20048;-78
2021/11/07 20:11:15;;;;;;;8.32;2.00;;;;;;;5.63;100.00;98263.88;10389871;28;20144;-76
2021/11/07 20:16:18;;;;;;;9.55;1.90;;;;;;;5.57;100.00;98277.75;10385056;28;20045;-76
2021/11/07 20:21:22;;;;;;;6.65;2.00;;;;;;;5.49;100.00;98282.91;10386534;28;20450;-77
2021/11/07 20:26:25;;;;;;;6.25;1.92;;;;;;;5.49;100.00;98281.06;10422462;28;20037;-78
2021/11/07 20:31:29;;;;;;;7.97;2.17;;;;;;;5.48;100.00;98292.75;10398814;28;20052;-77
2021/11/07 20:36:35;;;;;;;5.53;1.60;;;;;;;5.42;100.00;98295.09;10419779;28;20046;-73
2021/11/07 20:41:43;;;;;;;10.82;1.98;;;;;;;5.39;100.00;98289.06;10411955;28;20057;-72
2021/11/07 20:47:18;;;;;;;6.85;1.85;;;;;;;5.39;100.00;98291.72;10426888;28;20061;-73
2021/11/07 20:52:25;;;;;;;9.75;2.03;;;;;;;5.35;100.00;98298.31;10412673;28;20041;-73
2021/11/07 20:57:36;;;;;;;9.93;2.20;;;;;;;5.39;100.00;98307.75;10435277;28;20068;-73
2021/11/07 21:02:45;;;;;;;9.32;2.55;;;;;;;5.47;100.00;98293.72;10438895;28;20129;-74
2021/11/07 21:07:53;;;;;;;6.60;2.00;;;;;;;5.46;100.00;98320.59;10428542;28;20067;-73
2021/11/07 21:12:59;;;;;;;10.82;2.53;;;;;;;5.43;100.00;98321.69;10425453;28;20068;-74
2021/11/07 21:23:49;;;;;;;9.18;2.17;;;;;;;5.35;100.00;98313.50;10393642;28;20045;-74
2021/11/07 21:28:54;;;;;;;13.43;2.70;;;;;;;5.34;100.00;98311.81;10425820;28;20049;-73
2021/11/07 21:34:05;;;;;;;12.05;2.80;;;;;;;5.24;100.00;98312.56;10417188;28;20045;-75
2021/11/07 21:39:23;;;;;;;14.18;3.05;;;;;;;5.25;100.00;98308.91;10405055;28;20060;-74
2021/11/07 21:44:28;;;;;;;15.90;2.80;;;;;;;5.19;100.00;98314.78;10413993;28;20041;-74
2021/11/07 21:49:32;;;;;;;10.57;2.70;;;;;;;5.13;100.00;98315.28;10403084;28;20103;-73
2021/11/07 21:54:38;;;;;;;16.25;3.08;;;;;;;5.17;100.00;98314.06;10397754;28;20057;-75
2021/11/07 21:59:42;;;;;;;14.02;2.80;;;;;;;5.14;100.00;98317.00;10410622;28;20048;-73
2021/11/07 22:04:45;;;;;;;14.38;2.90;;;;;;;5.12;100.00;98329.63;10421340;28;20397;-73
2021/11/07 22:09:50;;;;;;;14.88;2.90;;;;;;;5.09;100.00;98340.59;10412573;28;20494;-74
2021/11/07 22:15:02;;;;;;;12.93;2.70;;;;;;;5.09;100.00;98345.94;10425158;28;20060;-75
2021/11/07 22:20:09;;;;;;;19.67;3.17;;;;;;;5.08;100.00;98338.88;10412903;28;20045;-74
2021/11/07 22:25:16;;;;;;;22.52;3.50;;;;;;;5.12;100.00;98348.31;10395326;28;20506;-73
2021/11/07 22:30:20;;;;;;;20.02;3.45;;;;;;;5.13;100.00;98347.34;10403866;28;20063;-73
2021/11/07 22:35:24;;;;;;;18.90;3.20;;;;;;;5.13;100.00;98347.34;10407205;28;20059;-72
2021/11/07 22:40:33;;;;;;;16.30;2.88;;;;;;;5.12;100.00;98350.16;10405779;28;20120;-74
2021/11/07 22:45:39;;;;;;;13.43;3.00;;;;;;;5.15;100.00;98342.72;10407261;28;20075;-73
2021/11/07 22:50:53;;;;;;;16.35;3.00;;;;;;;5.22;100.00;98359.94;10386472;28;20045;-73
2021/11/07 22:56:35;;;;;;;17.33;2.70;;;;;;;5.35;100.00;98366.94;10410649;28;20426;-73
2021/11/07 23:01:43;;;;;;;21.85;2.95;;;;;;;5.40;100.00;98375.38;10396191;28;20394;-75
2021/11/07 23:06:49;;;;;;;17.15;3.17;;;;;;;5.43;100.00;98380.47;10388455;28;20514;-73
2021/11/07 23:11:56;;;;;;;19.35;3.10;;;;;;;5.54;100.00;98393.78;10403533;28;20129;-73
2021/11/07 23:17:02;;;;;;;17.00;2.90;;;;;;;5.62;100.00;98390.47;10415898;28;20052;-73
2021/11/07 23:22:16;;;;;;;17.70;2.80;;;;;;;5.67;100.00;98395.41;10417624;28;20037;-72
2021/11/07 23:27:24;;;;;;;18.10;3.00;;;;;;;5.77;100.00;98393.63;10402674;28;20497;-76
2021/11/07 23:32:29;;;;;;;21.15;3.38;;;;;;;5.79;100.00;98396.16;10385240;28;20046;-73
2021/11/07 23:37:32;;;;;;;15.80;2.35;;;;;;;5.91;100.00;98402.31;10402389;28;20050;-76
2021/11/07 23:42:36;;;;;;;17.17;2.53;;;;;;;5.89;100.00;98396.25;10387746;28;20531;-76
2021/11/07 23:47:42;;;;;;;17.25;2.53;;;;;;;5.98;100.00;98390.09;10455505;28;20028;-75
2021/11/07 23:58:05;;;;;;;19.65;2.83;;;;;;;5.97;100.00;98389.25;10395361;28;20081;-75
